sensor_id;sensor_type;location;lat;lon;timestamp;temperature;humidity
73875;HTU21D;62209;47.568;7.558;2023-04-16T00:03:20;9.02;99.43
73875;HTU21D;62209;47.568;7.558;2023-04-16T00:18:26;8.83;99.05
73875;HTU21D;62209;47.568;7.558;2023-04-16T00:33:32;8.86;98.97
73875;HTU21D;62209;47.568;7.558;2023-04-16T00:48:38;8.83;99.25
73875;HTU21D;62209;47.568;7.558;2023-04-16T01:03:46;8.67;99.92
73875;HTU21D;62209;47.568;7.558;2023-04-16T01:18:52;8.72;100.20
73875;HTU21D;62209;47.568;7.558;2023-04-16T01:33:58;8.62;101.20
73875;HTU21D;62209;47.568;7.558;2023-04-16T01:49:04;8.44;102.78
73875;HTU21D;62209;47.568;7.558;2023-04-16T02:04:10;8.42;102.99
73875;HTU21D;62209;47.568;7.558;2023-04-16T02:19:16;8.60;102.86
73875;HTU21D;62209;47.568;7.558;2023-04-16T02:34:21;8.56;102.71
73875;HTU21D;62209;47.568;7.558;2023-04-16T02:49:28;8.68;102.54
73875;HTU21D;62209;47.568;7.558;2023-04-16T03:04:34;8.62;102.31
73875;HTU21D;62209;47.568;7.558;2023-04-16T03:19:39;8.64;103.45
73875;HTU21D;62209;47.568;7.558;2023-04-16T03:34:45;8.66;103.97
73875;HTU21D;62209;47.568;7.558;2023-04-16T03:49:51;8.53;104.66
73875;HTU21D;62209;47.568;7.558;2023-04-16T04:04:57;8.64;104.86
73875;HTU21D;62209;47.568;7.558;2023-04-16T04:20:03;8.57;105.25
73875;HTU21D;62209;47.568;7.558;2023-04-16T04:35:09;8.51;104.76
73875;HTU21D;62209;47.568;7.558;2023-04-16T04:50:15;8.49;105.01
73875;HTU21D;62209;47.568;7.558;2023-04-16T05:05:21;8.47;104.18
73875;HTU21D;62209;47.568;7.558;2023-04-16T05:20:27;8.59;104.98
73875;HTU21D;62209;47.568;7.558;2023-04-16T05:35:33;8.39;103.66
73875;HTU21D;62209;47.568;7.558;2023-04-16T05:50:38;8.42;103.02
73875;HTU21D;62209;47.568;7.558;2023-04-16T06:05:44;8.32;102.73
73875;HTU21D;62209;47.568;7.558;2023-04-16T06:20:50;8.42;102.57
73875;HTU21D;62209;47.568;7.558;2023-04-16T06:35:55;8.41;102.12
73875;HTU21D;62209;47.568;7.558;2023-04-16T06:51:01;8.45;101.23
73875;HTU21D;62209;47.568;7.558;2023-04-16T07:06:07;8.33;100.95
73875;HTU21D;62209;47.568;7.558;2023-04-16T07:21:12;8.04;99.90
73875;HTU21D;62209;47.568;7.558;2023-04-16T07:36:18;8.14;99.71
73875;HTU21D;62209;47.568;7.558;2023-04-16T07:51:24;8.28;100.42
73875;HTU21D;62209;47.568;7.558;2023-04-16T08:06:29;8.27;100.06
73875;HTU21D;62209;47.568;7.558;2023-04-16T08:21:35;8.68;100.54
73875;HTU21D;62209;47.568;7.558;2023-04-16T08:36:41;8.47;99.35
73875;HTU21D;62209;47.568;7.558;2023-04-16T08:51:48;8.80;100.01
73875;HTU21D;62209;47.568;7.558;2023-04-16T09:06:55;8.51;98.88
73875;HTU21D;62209;47.568;7.558;2023-04-16T09:22:03;8.63;101.12
73875;HTU21D;62209;47.568;7.558;2023-04-16T09:37:15;8.59;102.27
73875;HTU21D;62209;47.568;7.558;2023-04-16T09:52:21;8.38;103.70
73875;HTU21D;62209;47.568;7.558;2023-04-16T10:07:28;8.86;104.26
73875;HTU21D;62209;47.568;7.558;2023-04-16T10:22:37;8.87;105.53
73875;HTU21D;62209;47.568;7.558;2023-04-16T10:37:43;8.85;105.25
73875;HTU21D;62209;47.568;7.558;2023-04-16T10:52:49;9.08;104.24
73875;HTU21D;62209;47.568;7.558;2023-04-16T11:08:21;8.89;104.02
73875;HTU21D;62209;47.568;7.558;2023-04-16T11:23:28;8.85;103.80
73875;HTU21D;62209;47.568;7.558;2023-04-16T11:38:34;9.09;103.67
73875;HTU21D;62209;47.568;7.558;2023-04-16T12:09:24;9.09;103.84
73875;HTU21D;62209;47.568;7.558;2023-04-16T12:24:30;9.65;103.38
73875;HTU21D;62209;47.568;7.558;2023-04-16T12:39:40;9.86;100.94
73875;HTU21D;62209;47.568;7.558;2023-04-16T12:54:45;10.04;101.05
73875;HTU21D;62209;47.568;7.558;2023-04-16T13:09:51;10.50;100.47
73875;HTU21D;62209;47.568;7.558;2023-04-16T13:24:56;10.60;98.67
73875;HTU21D;62209;47.568;7.558;2023-04-16T13:40:02;10.82;97.80
73875;HTU21D;62209;47.568;7.558;2023-04-16T13:55:09;10.81;97.74
73875;HTU21D;62209;47.568;7.558;2023-04-16T14:10:16;10.37;97.68
73875;HTU21D;62209;47.568;7.558;2023-04-16T14:25:22;10.41;97.83
73875;HTU21D;62209;47.568;7.558;2023-04-16T14:40:27;11.08;96.05
73875;HTU21D;62209;47.568;7.558;2023-04-16T14:55:33;10.89;96.75
73875;HTU21D;62209;47.568;7.558;2023-04-16T15:10:39;11.16;97.16
73875;HTU21D;62209;47.568;7.558;2023-04-16T15:25:45;11.24;95.61
73875;HTU21D;62209;47.568;7.558;2023-04-16T15:40:51;11.84;93.32
73875;HTU21D;62209;47.568;7.558;2023-04-16T15:55:56;11.16;94.27
73875;HTU21D;62209;47.568;7.558;2023-04-16T16:11:02;11.25;94.34
73875;HTU21D;62209;47.568;7.558;2023-04-16T16:26:08;11.00;95.18
73875;HTU21D;62209;47.568;7.558;2023-04-16T16:41:13;10.87;95.82
73875;HTU21D;62209;47.568;7.558;2023-04-16T16:56:19;10.68;96.64
73875;HTU21D;62209;47.568;7.558;2023-04-16T17:11:25;10.22;99.70
73875;HTU21D;62209;47.568;7.558;2023-04-16T17:26:31;9.86;102.71
73875;HTU21D;62209;47.568;7.558;2023-04-16T17:41:37;9.78;103.05
73875;HTU21D;62209;47.568;7.558;2023-04-16T17:56:43;9.65;102.97
73875;HTU21D;62209;47.568;7.558;2023-04-16T18:11:49;9.49;103.73
73875;HTU21D;62209;47.568;7.558;2023-04-16T18:26:54;9.59;103.70
73875;HTU21D;62209;47.568;7.558;2023-04-16T18:42:00;9.34;104.52
73875;HTU21D;62209;47.568;7.558;2023-04-16T18:57:06;9.23;105.48
73875;HTU21D;62209;47.568;7.558;2023-04-16T19:12:11;9.11;106.64
73875;HTU21D;62209;47.568;7.558;2023-04-16T19:27:17;9.30;105.66
73875;HTU21D;62209;47.568;7.558;2023-04-16T19:42:22;9.09;106.17
73875;HTU21D;62209;47.568;7.558;2023-04-16T19:57:29;9.14;105.91
73875;HTU21D;62209;47.568;7.558;2023-04-16T20:12:35;9.16;105.60
73875;HTU21D;62209;47.568;7.558;2023-04-16T20:27:41;9.19;105.08
73875;HTU21D;62209;47.568;7.558;2023-04-16T20:42:46;9.16;106.29
73875;HTU21D;62209;47.568;7.558;2023-04-16T20:57:54;9.04;106.51
73875;HTU21D;62209;47.568;7.558;2023-04-16T21:13:00;8.98;106.48
73875;HTU21D;62209;47.568;7.558;2023-04-16T21:28:05;8.91;106.44
73875;HTU21D;62209;47.568;7.558;2023-04-16T21:43:11;8.85;106.82
73875;HTU21D;62209;47.568;7.558;2023-04-16T21:58:17;8.80;106.97
73875;HTU21D;62209;47.568;7.558;2023-04-16T22:13:22;8.73;107.21
73875;HTU21D;62209;47.568;7.558;2023-04-16T22:28:28;8.63;107.26
73875;HTU21D;62209;47.568;7.558;2023-04-16T22:43:34;8.71;106.98
73875;HTU21D;62209;47.568;7.558;2023-04-16T22:58:40;8.64;106.79
73875;HTU21D;62209;47.568;7.558;2023-04-16T23:13:45;8.62;107.27
73875;HTU21D;62209;47.568;7.558;2023-04-16T23:28:51;8.73;107.18
73875;HTU21D;62209;47.568;7.558;2023-04-16T23:43:57;8.47;107.84
73875;HTU21D;62209;47.568;7.558;2023-04-16T23:59:03;8.39;108.17
